createdAt,value
2022-12-04T00:01:22.364Z,6.40
2022-12-04T00:03:53.419Z,6.40
2022-12-04T00:06:21.264Z,6.40
2022-12-04T00:08:48.905Z,6.40
2022-12-04T00:11:18.471Z,6.30
2022-12-04T00:13:45.525Z,6.30
2022-12-04T00:16:16.416Z,6.30
2022-12-04T00:18:43.435Z,6.30
2022-12-04T00:21:12.230Z,6.30
2022-12-04T00:23:41.276Z,6.30
2022-12-04T00:26:12.201Z,6.30
2022-12-04T00:28:39.018Z,6.30
2022-12-04T00:31:14.292Z,6.30
2022-12-04T00:33:41.502Z,6.30
2022-12-04T00:36:11.933Z,6.30
2022-12-04T00:38:40.221Z,6.30
2022-12-04T00:41:11.323Z,6.30
2022-12-04T00:43:38.247Z,6.30
2022-12-04T00:46:05.502Z,6.30
2022-12-04T00:48:32.779Z,6.20
2022-12-04T00:51:08.664Z,6.30
2022-12-04T00:53:36.138Z,6.20
2022-12-04T00:56:09.349Z,6.20
2022-12-04T00:58:36.707Z,6.20
2022-12-04T01:01:07.888Z,6.20
2022-12-04T01:03:34.834Z,6.20
2022-12-04T01:06:02.335Z,6.20
2022-12-04T01:08:29.423Z,6.20
2022-12-04T01:10:56.174Z,6.20
2022-12-04T01:13:24.204Z,6.20
2022-12-04T01:15:51.156Z,6.20
2022-12-04T01:18:18.860Z,6.20
2022-12-04T01:20:51.130Z,6.20
2022-12-04T01:23:19.018Z,6.20
2022-12-04T01:25:57.885Z,6.20
2022-12-04T01:28:25.598Z,6.20
2022-12-04T01:31:01.995Z,6.20
2022-12-04T01:33:29.772Z,6.20
2022-12-04T01:35:58.375Z,6.20
2022-12-04T01:38:25.822Z,6.20
2022-12-04T01:40:53.360Z,6.20
2022-12-04T01:43:21.232Z,6.20
2022-12-04T01:45:55.787Z,6.20
2022-12-04T01:48:32.501Z,6.20
2022-12-04T01:51:08.674Z,6.20
2022-12-04T01:53:38.726Z,6.20
2022-12-04T01:56:06.406Z,6.10
2022-12-04T01:58:40.583Z,6.10
2022-12-04T02:01:09.309Z,6.10
2022-12-04T02:03:37.775Z,6.10
2022-12-04T02:06:05.496Z,6.10
2022-12-04T02:08:34.243Z,6.10
2022-12-04T02:11:39.234Z,6.10
2022-12-04T02:14:13.524Z,6.00
2022-12-04T02:17:01.688Z,6.00
2022-12-04T02:19:31.355Z,6.00
2022-12-04T02:22:01.489Z,6.00
2022-12-04T02:24:36.970Z,6.00
2022-12-04T02:27:08.951Z,6.00
2022-12-04T02:29:52.860Z,6.00
2022-12-04T02:32:23.711Z,6.00
2022-12-04T02:35:01.027Z,6.00
2022-12-04T02:37:35.598Z,6.00
2022-12-04T02:40:12.222Z,6.00
2022-12-04T02:42:41.658Z,6.00
2022-12-04T02:45:32.450Z,6.00
2022-12-04T02:48:02.057Z,6.00
2022-12-04T02:50:29.980Z,6.00
2022-12-04T02:53:07.362Z,6.00
2022-12-04T02:55:41.920Z,6.00
2022-12-04T02:58:27.200Z,5.90
2022-12-04T03:00:56.409Z,5.80
2022-12-04T03:03:30.016Z,5.90
2022-12-04T03:06:09.014Z,5.90
2022-12-04T03:08:46.444Z,5.90
2022-12-04T03:11:13.480Z,5.90
2022-12-04T03:13:55.989Z,5.90
2022-12-04T03:16:31.459Z,5.90
2022-12-04T03:19:15.353Z,5.90
2022-12-04T03:21:52.293Z,5.90
2022-12-04T03:24:31.068Z,5.90
2022-12-04T03:27:12.681Z,5.90
2022-12-04T03:29:43.164Z,5.80
2022-12-04T03:32:23.793Z,5.80
2022-12-04T03:35:07.834Z,5.80
2022-12-04T03:37:58.139Z,5.80
2022-12-04T03:40:34.275Z,5.80
2022-12-04T03:43:15.026Z,5.80
2022-12-04T03:46:05.520Z,5.80
2022-12-04T03:49:01.612Z,5.80
2022-12-04T03:51:39.302Z,5.70
2022-12-04T03:54:14.868Z,5.70
2022-12-04T03:56:55.734Z,5.70
2022-12-04T03:59:43.372Z,5.70
2022-12-04T04:02:16.209Z,5.70
2022-12-04T04:04:48.203Z,5.70
2022-12-04T04:07:22.817Z,5.70
2022-12-04T04:09:54.070Z,5.60
2022-12-04T04:12:24.619Z,5.70
2022-12-04T04:15:15.364Z,5.70
2022-12-04T04:18:07.637Z,5.60
2022-12-04T04:21:07.029Z,5.70
2022-12-04T04:23:59.507Z,5.70
2022-12-04T04:26:29.044Z,5.70
2022-12-04T04:28:55.764Z,5.60
2022-12-04T04:31:41.934Z,5.60
2022-12-04T04:34:30.630Z,5.60
2022-12-04T04:37:09.491Z,5.60
2022-12-04T04:39:55.113Z,5.60
2022-12-04T04:42:29.852Z,5.60
2022-12-04T04:45:20.566Z,5.60
2022-12-04T04:48:06.593Z,5.60
2022-12-04T04:50:35.277Z,5.50
2022-12-04T04:53:06.138Z,5.60
2022-12-04T04:55:35.579Z,5.60
2022-12-04T04:58:15.672Z,5.60
2022-12-04T05:00:54.168Z,5.60
2022-12-04T05:03:21.117Z,5.60
2022-12-04T05:05:47.725Z,5.60
2022-12-04T05:08:14.560Z,5.60
2022-12-04T05:10:41.314Z,5.60
2022-12-04T05:13:11.402Z,5.60
2022-12-04T05:15:38.736Z,5.60
2022-12-04T05:18:05.544Z,5.60
2022-12-04T05:20:32.767Z,5.60
2022-12-04T05:22:59.839Z,5.60
2022-12-04T05:25:26.563Z,5.60
2022-12-04T05:27:53.528Z,5.60
2022-12-04T05:30:20.376Z,5.60
2022-12-04T05:32:47.089Z,5.60
2022-12-04T05:35:13.742Z,5.60
2022-12-04T05:37:40.718Z,5.60
2022-12-04T05:40:08.830Z,5.60
2022-12-04T05:42:35.741Z,5.60
2022-12-04T05:45:02.484Z,5.60
2022-12-04T05:47:29.313Z,5.60
2022-12-04T05:49:56.216Z,5.60
2022-12-04T05:52:23.074Z,5.60
2022-12-04T05:54:50.100Z,5.50
2022-12-04T05:57:16.807Z,5.60
2022-12-04T05:59:43.548Z,5.60
2022-12-04T06:02:10.669Z,5.60
2022-12-04T06:04:38.408Z,5.60
2022-12-04T06:07:05.268Z,5.50
2022-12-04T06:09:32.208Z,5.60
2022-12-04T06:11:59.470Z,5.60
2022-12-04T06:14:26.291Z,5.60
2022-12-04T06:16:53.267Z,5.60
2022-12-04T06:19:21.602Z,5.60
2022-12-04T06:21:51.016Z,5.60
2022-12-04T06:24:23.930Z,5.60
2022-12-04T06:27:25.611Z,5.60
2022-12-04T06:29:38.359Z,5.60
2022-12-04T06:32:05.353Z,5.60
2022-12-04T06:34:32.502Z,5.60
2022-12-04T06:36:59.233Z,5.60
2022-12-04T06:39:25.949Z,5.60
2022-12-04T06:41:53.419Z,5.60
2022-12-04T06:44:20.140Z,5.60
2022-12-04T06:46:50.047Z,5.60
2022-12-04T06:49:17.105Z,5.60
2022-12-04T06:51:43.740Z,5.60
2022-12-04T06:54:11.514Z,5.60
2022-12-04T06:56:38.295Z,5.60
2022-12-04T06:59:05.777Z,5.60
2022-12-04T07:01:34.439Z,5.60
2022-12-04T07:04:03.999Z,5.60
2022-12-04T07:06:38.356Z,5.60
2022-12-04T07:09:07.013Z,5.60
2022-12-04T07:11:34.059Z,5.60
2022-12-04T07:14:02.016Z,5.60
2022-12-04T07:16:31.805Z,5.60
2022-12-04T07:19:02.475Z,5.60
2022-12-04T07:21:31.299Z,5.60
2022-12-04T07:24:00.282Z,5.60
2022-12-04T07:26:28.811Z,5.60
2022-12-04T07:28:56.610Z,5.60
2022-12-04T07:31:25.190Z,5.70
2022-12-04T07:33:54.406Z,5.70
2022-12-04T07:36:22.505Z,5.60
2022-12-04T07:38:49.782Z,5.70
2022-12-04T07:41:16.886Z,5.70
2022-12-04T07:43:43.728Z,5.70
2022-12-04T07:46:15.266Z,5.70
2022-12-04T07:48:42.445Z,5.70
2022-12-04T07:51:11.247Z,5.70
2022-12-04T07:53:38.518Z,5.70
2022-12-04T07:56:05.963Z,5.70
2022-12-04T07:58:34.257Z,5.70
2022-12-04T08:01:12.363Z,5.70
2022-12-04T08:03:46.810Z,5.70
2022-12-04T08:06:14.712Z,5.70
2022-12-04T08:08:41.611Z,5.70
2022-12-04T08:11:11.595Z,5.70
2022-12-04T08:13:38.665Z,5.70
2022-12-04T08:16:07.496Z,5.70
2022-12-04T08:18:34.794Z,5.80
2022-12-04T08:21:12.837Z,5.80
2022-12-04T08:23:41.018Z,5.70
2022-12-04T08:26:10.432Z,5.70
2022-12-04T08:28:37.334Z,5.80
2022-12-04T08:31:16.984Z,5.80
2022-12-04T08:33:45.264Z,5.80
2022-12-04T08:36:14.144Z,5.80
2022-12-04T08:38:41.164Z,5.90
2022-12-04T08:41:11.396Z,5.90
2022-12-04T08:43:38.746Z,5.90
2022-12-04T08:46:08.614Z,5.90
2022-12-04T08:48:35.840Z,5.90
2022-12-04T08:51:08.071Z,5.90
2022-12-04T08:53:36.430Z,5.90
2022-12-04T08:56:04.123Z,5.90
2022-12-04T08:58:31.274Z,5.90
2022-12-04T09:01:07.703Z,5.90
2022-12-04T09:03:34.972Z,5.90
2022-12-04T09:06:02.880Z,5.90
2022-12-04T09:08:30.366Z,6.00
2022-12-04T09:11:22.964Z,6.00
2022-12-04T09:13:49.869Z,6.00
2022-12-04T09:16:20.402Z,6.00
2022-12-04T09:18:47.434Z,6.00
2022-12-04T09:21:16.453Z,6.10
2022-12-04T09:23:43.429Z,6.10
2022-12-04T09:26:29.320Z,6.10
2022-12-04T09:28:58.866Z,6.10
2022-12-04T09:31:25.966Z,6.10
2022-12-04T09:33:53.379Z,6.20
2022-12-04T09:36:20.420Z,6.20
2022-12-04T09:38:49.975Z,6.20
2022-12-04T09:41:52.258Z,6.20
2022-12-04T09:44:26.384Z,6.20
2022-12-04T09:47:16.127Z,6.30
2022-12-04T09:49:55.574Z,6.30
2022-12-04T09:52:56.300Z,6.30
2022-12-04T09:55:25.496Z,6.30
2022-12-04T09:58:01.301Z,6.30
2022-12-04T10:00:29.880Z,6.30
2022-12-04T10:03:05.810Z,6.30
2022-12-04T10:05:52.701Z,6.40
2022-12-04T10:08:37.616Z,6.40
2022-12-04T10:11:19.992Z,6.40
2022-12-04T10:14:24.167Z,6.40
2022-12-04T10:17:18.390Z,6.40
2022-12-04T10:20:07.547Z,6.40
2022-12-04T10:23:01.388Z,6.40
2022-12-04T10:25:30.217Z,6.40
2022-12-04T10:28:28.100Z,6.40
2022-12-04T10:30:59.794Z,6.40
2022-12-04T10:33:38.202Z,6.40
2022-12-04T10:36:06.052Z,6.40
2022-12-04T10:39:03.412Z,6.40
2022-12-04T10:41:35.312Z,6.40
2022-12-04T10:44:02.393Z,6.40
2022-12-04T10:46:31.507Z,6.40
2022-12-04T10:49:33.447Z,6.50
2022-12-04T10:52:00.227Z,6.40
2022-12-04T10:54:36.284Z,6.40
2022-12-04T10:57:10.074Z,6.50
2022-12-04T11:00:00.328Z,6.50
2022-12-04T11:02:29.427Z,6.50
2022-12-04T11:05:01.999Z,6.50
2022-12-04T11:07:34.366Z,6.50
2022-12-04T11:10:32.684Z,6.50
2022-12-04T11:13:04.805Z,6.50
2022-12-04T11:15:36.152Z,6.60
2022-12-04T11:18:15.232Z,6.60
2022-12-04T11:20:50.191Z,6.60
2022-12-04T11:23:17.435Z,6.60
2022-12-04T11:25:48.446Z,6.60
2022-12-04T11:28:39.780Z,6.60
2022-12-04T11:31:08.068Z,6.60
2022-12-04T11:33:44.499Z,6.60
2022-12-04T11:36:33.555Z,6.60
2022-12-04T11:39:12.546Z,6.60
2022-12-04T11:41:39.534Z,6.60
2022-12-04T11:44:24.956Z,6.60
2022-12-04T11:46:57.473Z,6.60
2022-12-04T11:49:26.990Z,6.60
2022-12-04T11:51:53.967Z,6.70
2022-12-04T11:54:34.317Z,6.70
2022-12-04T11:57:38.799Z,6.70
2022-12-04T12:00:16.835Z,6.60
2022-12-04T12:03:04.503Z,6.70
2022-12-04T12:06:00.711Z,6.70
2022-12-04T12:09:06.692Z,6.70
2022-12-04T12:11:51.861Z,6.70
2022-12-04T12:14:38.988Z,6.70
2022-12-04T12:17:16.747Z,6.70
2022-12-04T12:19:55.781Z,6.70
2022-12-04T12:22:56.895Z,6.70
2022-12-04T12:25:50.389Z,6.70
2022-12-04T12:28:37.300Z,6.70
2022-12-04T12:31:28.791Z,6.70
2022-12-04T12:34:01.713Z,6.70
2022-12-04T12:36:33.922Z,6.70
2022-12-04T12:39:05.399Z,6.80
2022-12-04T12:41:39.621Z,6.70
2022-12-04T12:44:14.474Z,6.80
2022-12-04T12:46:53.035Z,6.80
2022-12-04T12:49:32.217Z,6.80
2022-12-04T12:52:11.394Z,6.80
2022-12-04T12:54:48.376Z,6.90
2022-12-04T12:57:27.459Z,6.90
2022-12-04T12:59:59.443Z,6.90
2022-12-04T13:02:31.966Z,6.90
2022-12-04T13:05:07.528Z,6.90
2022-12-04T13:07:54.252Z,6.90
2022-12-04T13:10:31.474Z,6.90
2022-12-04T13:13:06.814Z,6.90
2022-12-04T13:16:04.061Z,6.90
2022-12-04T13:18:36.510Z,6.90
2022-12-04T13:21:09.138Z,6.90
2022-12-04T13:24:10.177Z,7.00
2022-12-04T13:26:48.995Z,6.90
2022-12-04T13:29:16.396Z,6.90
2022-12-04T13:32:01.061Z,7.00
2022-12-04T13:35:12.134Z,6.90
2022-12-04T13:37:59.516Z,6.90
2022-12-04T13:40:37.145Z,6.90
2022-12-04T13:43:20.404Z,6.90
2022-12-04T13:45:50.781Z,6.90
2022-12-04T13:48:36.766Z,6.90
2022-12-04T13:51:13.906Z,6.90
2022-12-04T13:53:42.924Z,6.90
2022-12-04T13:56:26.236Z,6.90
2022-12-04T13:59:04.615Z,6.90
2022-12-04T14:01:46.132Z,7.00
2022-12-04T14:04:35.016Z,6.90
2022-12-04T14:07:04.243Z,7.00
2022-12-04T14:09:43.728Z,6.90
2022-12-04T14:12:14.233Z,6.90
2022-12-04T14:15:00.046Z,6.90
2022-12-04T14:17:34.094Z,7.00
2022-12-04T14:20:07.765Z,7.00
2022-12-04T14:22:38.247Z,7.00
2022-12-04T14:25:12.002Z,7.00
2022-12-04T14:27:42.003Z,7.00
2022-12-04T14:30:34.867Z,7.00
2022-12-04T14:33:21.465Z,7.00
2022-12-04T14:36:03.333Z,7.00
2022-12-04T14:38:30.159Z,7.00
2022-12-04T14:40:58.348Z,7.00
2022-12-04T14:43:29.937Z,7.00
2022-12-04T14:46:21.848Z,7.00
2022-12-04T14:49:06.723Z,7.00
2022-12-04T14:51:37.832Z,7.00
2022-12-04T14:54:32.352Z,7.00
2022-12-04T14:58:21.694Z,7.00
2022-12-04T15:00:54.282Z,7.00
2022-12-04T15:03:22.726Z,7.00
2022-12-04T15:05:51.214Z,7.00
2022-12-04T15:08:20.347Z,7.00
2022-12-04T15:11:09.987Z,7.00
2022-12-04T15:13:39.241Z,7.00
2022-12-04T15:16:22.560Z,7.00
2022-12-04T15:18:56.375Z,7.00
2022-12-04T15:21:30.609Z,7.00
2022-12-04T15:23:58.412Z,7.00
2022-12-04T15:26:26.812Z,7.00
2022-12-04T15:29:03.042Z,7.00
2022-12-04T15:31:43.586Z,7.00
2022-12-04T15:34:17.273Z,7.00
2022-12-04T15:37:19.701Z,7.00
2022-12-04T15:39:46.853Z,7.00
2022-12-04T15:42:23.951Z,7.00
2022-12-04T15:45:00.834Z,7.00
2022-12-04T15:47:40.825Z,7.00
2022-12-04T15:50:28.459Z,7.00
2022-12-04T15:53:19.672Z,7.00
2022-12-04T15:55:51.052Z,7.00
2022-12-04T15:58:30.056Z,6.90
2022-12-04T16:01:00.377Z,7.00
2022-12-04T16:03:31.120Z,7.00
2022-12-04T16:06:07.848Z,6.90
2022-12-04T16:08:38.579Z,7.00
2022-12-04T16:11:23.055Z,7.00
2022-12-04T16:14:09.308Z,7.00
2022-12-04T16:16:38.312Z,6.90
2022-12-04T16:19:29.198Z,7.00
2022-12-04T16:21:56.363Z,7.00
2022-12-04T16:24:23.109Z,7.00
2022-12-04T16:26:51.531Z,7.00
2022-12-04T16:29:18.341Z,7.00
2022-12-04T16:31:45.090Z,7.00
2022-12-04T16:34:12.967Z,7.10
2022-12-04T16:36:40.268Z,7.00
2022-12-04T16:39:07.190Z,7.00
2022-12-04T16:41:34.212Z,7.00
2022-12-04T16:44:01.656Z,7.00
2022-12-04T16:46:29.739Z,7.00
2022-12-04T16:48:57.109Z,7.00
2022-12-04T16:51:26.528Z,7.10
2022-12-04T16:53:54.441Z,7.00
2022-12-04T16:56:22.269Z,7.00
2022-12-04T16:58:49.307Z,7.10
2022-12-04T17:01:34.656Z,7.00
2022-12-04T17:04:01.558Z,7.00
2022-12-04T17:06:28.316Z,7.00
2022-12-04T17:08:55.215Z,7.00
2022-12-04T17:11:21.970Z,7.00
2022-12-04T17:13:48.654Z,7.00
2022-12-04T17:16:19.583Z,7.00
2022-12-04T17:18:46.927Z,7.00
2022-12-04T17:21:14.980Z,7.00
2022-12-04T17:23:41.748Z,7.10
2022-12-04T17:26:12.562Z,7.10
2022-12-04T17:28:40.232Z,7.10
2022-12-04T17:31:19.787Z,7.10
2022-12-04T17:33:47.132Z,7.10
2022-12-04T17:36:17.184Z,7.10
2022-12-04T17:38:44.459Z,7.10
2022-12-04T17:41:13.965Z,7.10
2022-12-04T17:43:42.131Z,7.10
2022-12-04T17:46:10.967Z,7.10
2022-12-04T17:48:38.723Z,7.10
2022-12-04T17:51:12.015Z,7.20
2022-12-04T17:53:39.519Z,7.20
2022-12-04T17:56:11.319Z,7.20
2022-12-04T17:58:38.614Z,7.20
2022-12-04T18:01:14.262Z,7.20
2022-12-04T18:03:41.496Z,7.20
2022-12-04T18:06:14.124Z,7.20
2022-12-04T18:08:44.056Z,7.20
2022-12-04T18:11:15.439Z,7.20
2022-12-04T18:13:42.182Z,7.20
2022-12-04T18:16:11.012Z,7.20
2022-12-04T18:18:38.042Z,7.20
2022-12-04T18:21:11.088Z,7.20
2022-12-04T18:23:44.295Z,7.20
2022-12-04T18:26:20.180Z,7.20
2022-12-04T18:28:47.865Z,7.20
2022-12-04T18:31:16.270Z,7.20
2022-12-04T18:33:44.172Z,7.20
2022-12-04T18:36:22.759Z,7.20
2022-12-04T18:38:55.546Z,7.20
2022-12-04T18:41:22.724Z,7.20
2022-12-04T18:43:49.759Z,7.20
2022-12-04T18:46:17.392Z,7.20
2022-12-04T18:48:46.471Z,7.20
2022-12-04T18:51:24.285Z,7.20
2022-12-04T18:53:52.912Z,7.20
2022-12-04T18:56:19.819Z,7.20
2022-12-04T18:58:46.947Z,7.20
2022-12-04T19:01:16.355Z,7.20
2022-12-04T19:03:43.091Z,7.20
2022-12-04T19:06:12.322Z,7.20
2022-12-04T19:08:43.223Z,7.20
2022-12-04T19:11:13.390Z,7.20
2022-12-04T19:13:40.444Z,7.30
2022-12-04T19:16:12.735Z,7.30
2022-12-04T19:18:39.668Z,7.30
2022-12-04T19:21:08.109Z,7.30
2022-12-04T19:23:35.288Z,7.30
2022-12-04T19:26:02.067Z,7.30
2022-12-04T19:28:29.321Z,7.30
2022-12-04T19:30:56.551Z,7.30
2022-12-04T19:33:24.723Z,7.30
2022-12-04T19:35:59.634Z,7.30
2022-12-04T19:38:26.882Z,7.30
2022-12-04T19:41:10.388Z,7.30
2022-12-04T19:43:43.061Z,7.30
2022-12-04T19:46:11.870Z,7.30
2022-12-04T19:48:38.961Z,7.40
2022-12-04T19:51:08.493Z,7.40
2022-12-04T19:53:40.704Z,7.30
2022-12-04T19:56:15.358Z,7.40
2022-12-04T19:58:42.978Z,7.40
2022-12-04T20:01:12.678Z,7.40
2022-12-04T20:03:39.816Z,7.40
2022-12-04T20:06:09.423Z,7.40
2022-12-04T20:08:36.622Z,7.40
2022-12-04T20:11:11.654Z,7.40
2022-12-04T20:13:39.696Z,7.40
2022-12-04T20:16:09.353Z,7.40
2022-12-04T20:18:37.671Z,7.40
2022-12-04T20:21:10.986Z,7.40
2022-12-04T20:23:43.191Z,7.40
2022-12-04T20:26:12.538Z,7.40
2022-12-04T20:28:39.699Z,7.40
2022-12-04T20:31:18.507Z,7.40
2022-12-04T20:33:47.758Z,7.40
2022-12-04T20:36:15.821Z,7.40
2022-12-04T20:38:42.914Z,7.40
2022-12-04T20:41:13.388Z,7.40
2022-12-04T20:43:40.088Z,7.40
2022-12-04T20:46:17.997Z,7.40
2022-12-04T20:48:48.748Z,7.40
2022-12-04T20:51:31.681Z,7.50
2022-12-04T20:53:59.917Z,7.40
2022-12-04T20:56:32.912Z,7.50
2022-12-04T20:59:02.332Z,7.50
2022-12-04T21:01:29.806Z,7.50
2022-12-04T21:03:59.109Z,7.50
2022-12-04T21:06:34.582Z,7.50
2022-12-04T21:09:07.906Z,7.50
2022-12-04T21:11:43.410Z,7.50
2022-12-04T21:14:37.124Z,7.50
2022-12-04T21:17:06.801Z,7.50
2022-12-04T21:19:33.644Z,7.40
2022-12-04T21:22:00.470Z,7.50
2022-12-04T21:24:28.757Z,7.50
2022-12-04T21:26:55.912Z,7.50
2022-12-04T21:29:23.277Z,7.50
2022-12-04T21:31:50.140Z,7.50
2022-12-04T21:34:17.894Z,7.50
2022-12-04T21:36:46.167Z,7.40
2022-12-04T21:39:14.484Z,7.50
2022-12-04T21:41:59.804Z,7.50
2022-12-04T21:44:26.711Z,7.50
2022-12-04T21:46:53.520Z,7.50
2022-12-04T21:49:20.405Z,7.50
2022-12-04T21:52:02.568Z,7.50
2022-12-04T21:54:29.772Z,7.50
2022-12-04T21:56:57.168Z,7.40
2022-12-04T21:59:25.235Z,7.40
2022-12-04T22:01:52.943Z,7.40
2022-12-04T22:04:20.411Z,7.40
2022-12-04T22:06:47.344Z,7.40
2022-12-04T22:09:14.013Z,7.40
2022-12-04T22:11:42.209Z,7.40
2022-12-04T22:14:10.107Z,7.40
2022-12-04T22:16:41.910Z,7.50
2022-12-04T22:19:11.099Z,7.40
2022-12-04T22:21:38.230Z,7.50
2022-12-04T22:24:05.448Z,7.50
2022-12-04T22:26:32.393Z,7.50
2022-12-04T22:28:59.464Z,7.50
2022-12-04T22:31:28.347Z,7.50
2022-12-04T22:33:56.980Z,7.50
2022-12-04T22:36:27.517Z,7.50
2022-12-04T22:39:10.755Z,7.50
2022-12-04T22:41:38.486Z,7.50
2022-12-04T22:44:05.589Z,7.50
2022-12-04T22:46:33.128Z,7.50
2022-12-04T22:49:00.470Z,7.40
2022-12-04T22:51:27.629Z,7.50
2022-12-04T22:53:57.081Z,7.50
2022-12-04T22:56:29.250Z,7.50
2022-12-04T22:58:58.029Z,7.50
2022-12-04T23:01:30.207Z,7.50
2022-12-04T23:03:57.722Z,7.40
2022-12-04T23:06:26.778Z,7.40
2022-12-04T23:09:01.808Z,7.40
2022-12-04T23:11:29.286Z,7.40
2022-12-04T23:14:02.444Z,7.40
2022-12-04T23:16:31.437Z,7.40
2022-12-04T23:18:58.622Z,7.40
2022-12-04T23:21:25.607Z,7.40
2022-12-04T23:23:54.157Z,7.40
2022-12-04T23:26:24.751Z,7.40
2022-12-04T23:28:52.326Z,7.40
2022-12-04T23:31:19.311Z,7.40
2022-12-04T23:33:46.470Z,7.40
2022-12-04T23:36:14.128Z,7.40
2022-12-04T23:38:42.390Z,7.40
2022-12-04T23:41:16.470Z,7.40
2022-12-04T23:43:43.815Z,7.40
2022-12-04T23:46:13.804Z,7.40
2022-12-04T23:48:42.355Z,7.40
2022-12-04T23:51:10.740Z,7.40
2022-12-04T23:53:37.437Z,7.40
2022-12-04T23:56:13.418Z,7.40
2022-12-04T23:58:41.242Z,7.40
